AIRPORT METAR

METAR FOR LIPX
ADDS - METARS form results

(1944 UTC 23 August 2019)
Data provider http://aviationweather.gov/metar/data/
 
METAR text: LIPX 231920Z VRB02KT 9999 FEW040 BKN060 25/19 Q1020
Conditions at: LIPX (VILLAFRANCA(CV/M, IT) observed 1920 UTC 23 August 2019
Temperature: 25.0°C (77°F)
Dewpoint: 19.0°C (66°F) [RH = 69%]
Pressure (altimeter): 30.12 inches Hg (1020.0 mb)
Winds: variable direction winds at 2 MPH (2 knots; 1.0 m/s)
Visibility: 6 or more miles (10+ km)
Ceiling: 6000 feet AGL
Clouds: few clouds at 4000 feet AGL
broken clouds at 6000 feet AGL
Weather: no significant weather observed at this time

METAR text: LIPX 231850Z VRB02KT 9999 -RA FEW040 SCT060 25/19 Q1020
Conditions at: LIPX (VILLAFRANCA(CV/M, IT) observed 1850 UTC 23 August 2019
Temperature: 25.0°C (77°F)
Dewpoint: 19.0°C (66°F) [RH = 69%]
Pressure (altimeter): 30.12 inches Hg (1020.0 mb)
Winds: variable direction winds at 2 MPH (2 knots; 1.0 m/s)
Visibility: 6 or more miles (10+ km)
Ceiling: at least 12,000 feet AGL
Clouds: few clouds at 4000 feet AGL
scattered clouds at 6000 feet AGL
Weather: -RA  (light rain)

Forecast for: LIPX (VILLAFRANCA(CV/M, IT)
Text: TAF LIPX 231700Z 2318/2403 VRB05KT 9999 SCT050
Forecast period: 1800 UTC 23 August 2019 to 0300 UTC 24 August 2019
Forecast type: FROM: standard forecast or significant change
Winds: variable direction winds at 6 MPH (5 knots; 2.6 m/s)
Visibility: 6 or more miles 10+ km)
Ceiling: at least 12,000 feet AGL
Clouds: scattered clouds at 5000 feet AGL
Weather: no significant weather forecast for this period
Text: PROB40
Forecast period: 2000 UTC 23 August 2019 to 0200 UTC 24 August 2019
Forecast type: TEMPORARY: The following changes expected for less than half the time period
Visibility: missing
Ceiling: unknown
Clouds: missing
Weather: TSRA  (rain associated with thunderstorm(s))

AIRPORT MAP

 RUNWAY INFORMATION
Runway 04 Runway length 10064 ft Runway width 148 ft
Runway elevation 220 ft Runway displaced threshold 189 ft Runway heading 46
Runway 22 Runway length 10064 ft Runway width 148 ft
Runway elevation 238 ft Runway displaced threshold 1345 ft Runway heading 226

 AIRPORT FREQUENCIES
Type APP Name GARDA APP Frequency 36.23 MHZ
Type APP Name GARDA APP Frequency 124.45 MHZ
Type GND Name GND Frequency 121.75 MHZ
Type INFO Name PADOVA INF Frequency 123.25 MHZ
Type TWR Name TWR Frequency 118.65 MHZ

 AIRPORT NEAR NAVIGATION AIDS
Type VORTAC Name Villafranca Frequency 115800 KHZ
Type NDB Name Villafranca Frequency 355 KHZ



© 2017 - Royal Sky Service, All Right Reserved. | Design & Developed by Davide Torresan